sensor_id;sensor_type;location;lat;lon;timestamp;pressure;altitude;pressure_sealevel;temperature;humidity
11099;BME280;12223;42.650;23.364;2023-03-31T00:02:00;94710.53;;;5.77;100.00
11099;BME280;12223;42.650;23.364;2023-03-31T00:04:27;94715.16;;;6.03;100.00
11099;BME280;12223;42.650;23.364;2023-03-31T00:06:57;94714.06;;;6.19;100.00
11099;BME280;12223;42.650;23.364;2023-03-31T00:09:24;94713.66;;;6.22;100.00
11099;BME280;12223;42.650;23.364;2023-03-31T00:11:54;94715.25;;;5.88;100.00
11099;BME280;12223;42.650;23.364;2023-03-31T00:14:20;94711.41;;;5.63;100.00
11099;BME280;12223;42.650;23.364;2023-03-31T00:16:47;94709.13;;;5.75;100.00
11099;BME280;12223;42.650;23.364;2023-03-31T00:19:13;94720.81;;;5.79;100.00
11099;BME280;12223;42.650;23.364;2023-03-31T00:21:44;94708.47;;;5.73;100.00
11099;BME280;12223;42.650;23.364;2023-03-31T00:24:13;94708.47;;;5.73;100.00
11099;BME280;12223;42.650;23.364;2023-03-31T00:26:40;94710.97;;;5.81;100.00
11099;BME280;12223;42.650;23.364;2023-03-31T00:29:07;94665.94;;;5.71;100.00
11099;BME280;12223;42.650;23.364;2023-03-31T00:31:34;94706.41;;;5.89;100.00
11099;BME280;12223;42.650;23.364;2023-03-31T00:34:02;94704.00;;;5.88;100.00
11099;BME280;12223;42.650;23.364;2023-03-31T00:36:29;94703.41;;;5.92;100.00
11099;BME280;12223;42.650;23.364;2023-03-31T00:38:56;94697.41;;;5.98;100.00
11099;BME280;12223;42.650;23.364;2023-03-31T00:41:25;94690.81;;;6.16;100.00
11099;BME280;12223;42.650;23.364;2023-03-31T00:44:00;94686.63;;;6.21;100.00
11099;BME280;12223;42.650;23.364;2023-03-31T00:46:28;94685.91;;;6.40;100.00
11099;BME280;12223;42.650;23.364;2023-03-31T00:48:56;94690.19;;;6.48;100.00
11099;BME280;12223;42.650;23.364;2023-03-31T00:51:23;94691.66;;;6.70;100.00
11099;BME280;12223;42.650;23.364;2023-03-31T00:53:52;94687.44;;;6.69;100.00
11099;BME280;12223;42.650;23.364;2023-03-31T00:56:21;94685.13;;;6.46;100.00
11099;BME280;12223;42.650;23.364;2023-03-31T00:58:50;94683.19;;;6.21;100.00
11099;BME280;12223;42.650;23.364;2023-03-31T01:01:19;94677.31;;;6.12;100.00
11099;BME280;12223;42.650;23.364;2023-03-31T01:03:48;94671.19;;;5.98;100.00
11099;BME280;12223;42.650;23.364;2023-03-31T01:06:15;94672.69;;;5.86;100.00
11099;BME280;12223;42.650;23.364;2023-03-31T01:08:45;94672.81;;;5.99;100.00
11099;BME280;12223;42.650;23.364;2023-03-31T01:11:14;94669.16;;;5.94;100.00
11099;BME280;12223;42.650;23.364;2023-03-31T01:13:42;94666.59;;;6.14;100.00
11099;BME280;12223;42.650;23.364;2023-03-31T01:16:11;94681.47;;;6.41;100.00
11099;BME280;12223;42.650;23.364;2023-03-31T01:18:37;94672.84;;;6.54;100.00
11099;BME280;12223;42.650;23.364;2023-03-31T01:23:59;94660.94;;;6.58;100.00
11099;BME280;12223;42.650;23.364;2023-03-31T01:26:39;94661.47;;;6.40;100.00
11099;BME280;12223;42.650;23.364;2023-03-31T01:29:11;94672.25;;;6.58;100.00
11099;BME280;12223;42.650;23.364;2023-03-31T01:31:49;94671.72;;;6.82;100.00
11099;BME280;12223;42.650;23.364;2023-03-31T01:34:38;94672.34;;;7.04;100.00
11099;BME280;12223;42.650;23.364;2023-03-31T01:37:21;94674.19;;;7.10;100.00
11099;BME280;12223;42.650;23.364;2023-03-31T01:42:41;94679.47;;;7.37;99.92
11099;BME280;12223;42.650;23.364;2023-03-31T01:45:15;94692.59;;;7.23;100.00
11099;BME280;12223;42.650;23.364;2023-03-31T01:47:45;94699.47;;;7.38;100.00
11099;BME280;12223;42.650;23.364;2023-03-31T01:50:17;94686.09;;;7.00;100.00
11099;BME280;12223;42.650;23.364;2023-03-31T01:52:49;94706.16;;;6.60;100.00
11099;BME280;12223;42.650;23.364;2023-03-31T01:55:19;94708.25;;;6.84;100.00
11099;BME280;12223;42.650;23.364;2023-03-31T01:57:50;94705.84;;;6.96;100.00
11099;BME280;12223;42.650;23.364;2023-03-31T02:00:19;94699.59;;;6.97;100.00
11099;BME280;12223;42.650;23.364;2023-03-31T02:02:56;94695.19;;;7.17;100.00
11099;BME280;12223;42.650;23.364;2023-03-31T02:05:25;94697.81;;;7.10;100.00
11099;BME280;12223;42.650;23.364;2023-03-31T02:07:52;94698.03;;;7.35;100.00
11099;BME280;12223;42.650;23.364;2023-03-31T02:10:20;94701.28;;;7.44;100.00
11099;BME280;12223;42.650;23.364;2023-03-31T02:12:47;94703.72;;;7.39;100.00
11099;BME280;12223;42.650;23.364;2023-03-31T02:15:17;94707.56;;;7.49;100.00
11099;BME280;12223;42.650;23.364;2023-03-31T02:17:46;94699.88;;;7.54;100.00
11099;BME280;12223;42.650;23.364;2023-03-31T02:20:15;94716.84;;;7.32;100.00
11099;BME280;12223;42.650;23.364;2023-03-31T02:22:44;94728.59;;;7.49;100.00
11099;BME280;12223;42.650;23.364;2023-03-31T02:25:14;94723.31;;;7.43;100.00
11099;BME280;12223;42.650;23.364;2023-03-31T02:27:43;94725.31;;;7.27;100.00
11099;BME280;12223;42.650;23.364;2023-03-31T02:30:12;94735.59;;;7.16;100.00
11099;BME280;12223;42.650;23.364;2023-03-31T02:32:41;94742.06;;;7.13;100.00
11099;BME280;12223;42.650;23.364;2023-03-31T02:35:09;94725.31;;;7.34;100.00
11099;BME280;12223;42.650;23.364;2023-03-31T02:37:37;94728.16;;;7.19;100.00
11099;BME280;12223;42.650;23.364;2023-03-31T02:40:05;94741.09;;;7.34;100.00
11099;BME280;12223;42.650;23.364;2023-03-31T02:42:34;94744.72;;;7.46;100.00
11099;BME280;12223;42.650;23.364;2023-03-31T02:45:01;94723.50;;;7.41;100.00
11099;BME280;12223;42.650;23.364;2023-03-31T02:47:28;94733.41;;;7.59;100.00
11099;BME280;12223;42.650;23.364;2023-03-31T02:49:57;94732.41;;;7.73;100.00
11099;BME280;12223;42.650;23.364;2023-03-31T02:52:37;94730.59;;;7.67;100.00
11099;BME280;12223;42.650;23.364;2023-03-31T02:55:20;94729.41;;;7.83;100.00
11099;BME280;12223;42.650;23.364;2023-03-31T03:00:40;94705.91;;;8.07;100.00
11099;BME280;12223;42.650;23.364;2023-03-31T03:03:18;94712.75;;;8.22;100.00
11099;BME280;12223;42.650;23.364;2023-03-31T03:05:53;94697.38;;;8.32;100.00
11099;BME280;12223;42.650;23.364;2023-03-31T03:08:26;94694.53;;;8.33;100.00
11099;BME280;12223;42.650;23.364;2023-03-31T03:10:57;94698.53;;;8.49;100.00
11099;BME280;12223;42.650;23.364;2023-03-31T03:13:29;94692.03;;;8.58;100.00
11099;BME280;12223;42.650;23.364;2023-03-31T03:16:02;94692.19;;;8.70;100.00
11099;BME280;12223;42.650;23.364;2023-03-31T03:18:31;94688.22;;;8.85;100.00
11099;BME280;12223;42.650;23.364;2023-03-31T03:20:59;94672.63;;;8.91;100.00
11099;BME280;12223;42.650;23.364;2023-03-31T03:23:25;94667.78;;;9.19;100.00
11099;BME280;12223;42.650;23.364;2023-03-31T03:25:52;94674.50;;;9.15;100.00
11099;BME280;12223;42.650;23.364;2023-03-31T03:28:18;94664.50;;;8.92;100.00
11099;BME280;12223;42.650;23.364;2023-03-31T03:30:45;94671.28;;;8.75;100.00
11099;BME280;12223;42.650;23.364;2023-03-31T03:33:11;94664.84;;;8.71;100.00
11099;BME280;12223;42.650;23.364;2023-03-31T03:35:41;94662.53;;;8.81;100.00
11099;BME280;12223;42.650;23.364;2023-03-31T03:38:09;94673.09;;;8.74;100.00
11099;BME280;12223;42.650;23.364;2023-03-31T03:40:35;94664.41;;;8.74;100.00
11099;BME280;12223;42.650;23.364;2023-03-31T03:43:03;94661.91;;;8.85;100.00
11099;BME280;12223;42.650;23.364;2023-03-31T03:45:29;94642.13;;;8.76;100.00
11099;BME280;12223;42.650;23.364;2023-03-31T03:47:56;94648.88;;;8.66;100.00
11099;BME280;12223;42.650;23.364;2023-03-31T03:50:22;94638.56;;;8.58;100.00
11099;BME280;12223;42.650;23.364;2023-03-31T03:52:49;94641.88;;;8.46;100.00
11099;BME280;12223;42.650;23.364;2023-03-31T03:55:17;94642.63;;;8.54;100.00
11099;BME280;12223;42.650;23.364;2023-03-31T03:57:43;94634.50;;;8.62;100.00
11099;BME280;12223;42.650;23.364;2023-03-31T04:00:10;94650.31;;;8.55;100.00
11099;BME280;12223;42.650;23.364;2023-03-31T04:02:37;94655.19;;;8.58;100.00
11099;BME280;12223;42.650;23.364;2023-03-31T04:05:04;94656.41;;;8.49;100.00
11099;BME280;12223;42.650;23.364;2023-03-31T04:07:31;94661.03;;;8.54;100.00
11099;BME280;12223;42.650;23.364;2023-03-31T04:09:57;94660.25;;;8.60;100.00
11099;BME280;12223;42.650;23.364;2023-03-31T04:12:25;94664.88;;;8.64;100.00
11099;BME280;12223;42.650;23.364;2023-03-31T04:14:52;94644.28;;;8.48;100.00
11099;BME280;12223;42.650;23.364;2023-03-31T04:17:18;94651.63;;;8.26;100.00
11099;BME280;12223;42.650;23.364;2023-03-31T04:19:57;94653.47;;;8.19;100.00
11099;BME280;12223;42.650;23.364;2023-03-31T04:22:25;94653.03;;;8.22;100.00
11099;BME280;12223;42.650;23.364;2023-03-31T04:24:54;94656.28;;;8.31;100.00
11099;BME280;12223;42.650;23.364;2023-03-31T04:27:33;94655.66;;;8.29;100.00
11099;BME280;12223;42.650;23.364;2023-03-31T04:30:13;94655.84;;;8.47;100.00
11099;BME280;12223;42.650;23.364;2023-03-31T04:32:46;94654.00;;;8.41;100.00
11099;BME280;12223;42.650;23.364;2023-03-31T04:35:15;94652.56;;;8.52;100.00
11099;BME280;12223;42.650;23.364;2023-03-31T04:37:42;94651.38;;;8.41;100.00
11099;BME280;12223;42.650;23.364;2023-03-31T04:40:09;94653.63;;;8.37;100.00
11099;BME280;12223;42.650;23.364;2023-03-31T04:42:37;94653.72;;;8.62;100.00
11099;BME280;12223;42.650;23.364;2023-03-31T04:45:04;94657.13;;;8.69;100.00
11099;BME280;12223;42.650;23.364;2023-03-31T04:47:30;94655.50;;;8.75;100.00
11099;BME280;12223;42.650;23.364;2023-03-31T04:49:57;94647.16;;;8.84;100.00
11099;BME280;12223;42.650;23.364;2023-03-31T04:52:23;94645.50;;;8.90;100.00
11099;BME280;12223;42.650;23.364;2023-03-31T04:54:50;94643.97;;;8.69;100.00
11099;BME280;12223;42.650;23.364;2023-03-31T04:57:17;94646.09;;;8.85;100.00
11099;BME280;12223;42.650;23.364;2023-03-31T04:59:44;94641.09;;;8.77;100.00
11099;BME280;12223;42.650;23.364;2023-03-31T05:02:11;94623.38;;;8.60;100.00
11099;BME280;12223;42.650;23.364;2023-03-31T05:04:38;94588.66;;;8.38;100.00
11099;BME280;12223;42.650;23.364;2023-03-31T05:07:04;94628.97;;;8.32;100.00
11099;BME280;12223;42.650;23.364;2023-03-31T05:09:31;94624.78;;;8.62;100.00
11099;BME280;12223;42.650;23.364;2023-03-31T05:11:57;94635.75;;;8.91;100.00
11099;BME280;12223;42.650;23.364;2023-03-31T05:14:24;94634.38;;;8.81;100.00
11099;BME280;12223;42.650;23.364;2023-03-31T05:16:52;94638.13;;;8.99;100.00
11099;BME280;12223;42.650;23.364;2023-03-31T05:19:21;94625.72;;;9.06;100.00
11099;BME280;12223;42.650;23.364;2023-03-31T05:21:48;94630.38;;;9.10;100.00
11099;BME280;12223;42.650;23.364;2023-03-31T05:24:15;94620.16;;;9.20;100.00
11099;BME280;12223;42.650;23.364;2023-03-31T05:26:44;94621.94;;;9.26;100.00
11099;BME280;12223;42.650;23.364;2023-03-31T05:29:16;94584.50;;;9.18;100.00
11099;BME280;12223;42.650;23.364;2023-03-31T05:31:43;94616.47;;;9.71;100.00
11099;BME280;12223;42.650;23.364;2023-03-31T05:34:11;94613.25;;;9.87;100.00
11099;BME280;12223;42.650;23.364;2023-03-31T05:36:37;94619.16;;;9.64;100.00
11099;BME280;12223;42.650;23.364;2023-03-31T05:39:04;94610.13;;;10.15;100.00
11099;BME280;12223;42.650;23.364;2023-03-31T05:41:34;94615.84;;;11.08;100.00
11099;BME280;12223;42.650;23.364;2023-03-31T05:44:00;94614.69;;;11.04;100.00
11099;BME280;12223;42.650;23.364;2023-03-31T05:46:27;94608.94;;;11.07;100.00
11099;BME280;12223;42.650;23.364;2023-03-31T05:48:53;94607.22;;;10.71;100.00
11099;BME280;12223;42.650;23.364;2023-03-31T05:51:21;94610.34;;;10.68;100.00
11099;BME280;12223;42.650;23.364;2023-03-31T05:53:48;94617.03;;;10.53;100.00
11099;BME280;12223;42.650;23.364;2023-03-31T05:56:15;94624.38;;;10.32;100.00
11099;BME280;12223;42.650;23.364;2023-03-31T05:58:41;94627.53;;;11.01;100.00
11099;BME280;12223;42.650;23.364;2023-03-31T06:01:08;94628.47;;;10.46;100.00
11099;BME280;12223;42.650;23.364;2023-03-31T06:03:35;94624.16;;;10.82;100.00
11099;BME280;12223;42.650;23.364;2023-03-31T06:06:02;94620.63;;;11.29;100.00
11099;BME280;12223;42.650;23.364;2023-03-31T06:08:31;94629.06;;;11.61;100.00
11099;BME280;12223;42.650;23.364;2023-03-31T06:10:58;94634.28;;;10.85;100.00
11099;BME280;12223;42.650;23.364;2023-03-31T06:13:24;94624.91;;;10.71;100.00
11099;BME280;12223;42.650;23.364;2023-03-31T06:15:52;94630.88;;;10.96;100.00
11099;BME280;12223;42.650;23.364;2023-03-31T06:18:18;94636.19;;;11.08;100.00
11099;BME280;12223;42.650;23.364;2023-03-31T06:20:45;94630.19;;;10.71;100.00
11099;BME280;12223;42.650;23.364;2023-03-31T06:23:11;94620.03;;;10.86;100.00
11099;BME280;12223;42.650;23.364;2023-03-31T06:25:39;94618.06;;;10.81;100.00
11099;BME280;12223;42.650;23.364;2023-03-31T06:28:05;94624.34;;;10.51;100.00
11099;BME280;12223;42.650;23.364;2023-03-31T06:30:32;94628.41;;;10.53;100.00
11099;BME280;12223;42.650;23.364;2023-03-31T06:32:59;94628.13;;;11.03;100.00
11099;BME280;12223;42.650;23.364;2023-03-31T06:35:25;94631.88;;;10.95;100.00
11099;BME280;12223;42.650;23.364;2023-03-31T06:37:52;94629.91;;;11.74;98.68
11099;BME280;12223;42.650;23.364;2023-03-31T06:40:18;94625.75;;;12.93;90.42
11099;BME280;12223;42.650;23.364;2023-03-31T06:42:46;94624.63;;;12.88;87.47
11099;BME280;12223;42.650;23.364;2023-03-31T06:45:12;94625.38;;;13.01;87.42
11099;BME280;12223;42.650;23.364;2023-03-31T06:47:39;94631.53;;;12.89;86.23
11099;BME280;12223;42.650;23.364;2023-03-31T06:50:06;94630.16;;;12.87;86.74
11099;BME280;12223;42.650;23.364;2023-03-31T06:52:33;94636.97;;;12.83;85.08
11099;BME280;12223;42.650;23.364;2023-03-31T06:55:00;94637.31;;;12.46;87.83
11099;BME280;12223;42.650;23.364;2023-03-31T06:57:27;94644.44;;;12.46;89.74
11099;BME280;12223;42.650;23.364;2023-03-31T06:59:55;94634.16;;;12.61;90.74
11099;BME280;12223;42.650;23.364;2023-03-31T07:02:21;94634.13;;;12.73;90.96
11099;BME280;12223;42.650;23.364;2023-03-31T07:04:48;94622.56;;;12.79;87.13
11099;BME280;12223;42.650;23.364;2023-03-31T07:07:15;94614.56;;;12.90;85.56
11099;BME280;12223;42.650;23.364;2023-03-31T07:09:42;94624.31;;;13.30;81.30
11099;BME280;12223;42.650;23.364;2023-03-31T07:12:08;94603.75;;;13.20;82.78
11099;BME280;12223;42.650;23.364;2023-03-31T07:14:35;94590.97;;;13.17;83.50
11099;BME280;12223;42.650;23.364;2023-03-31T07:17:03;94577.75;;;13.06;83.46
11099;BME280;12223;42.650;23.364;2023-03-31T07:19:29;94579.44;;;12.95;82.43
11099;BME280;12223;42.650;23.364;2023-03-31T07:21:56;94573.47;;;12.88;82.72
11099;BME280;12223;42.650;23.364;2023-03-31T07:24:22;94569.72;;;13.01;82.65
11099;BME280;12223;42.650;23.364;2023-03-31T07:26:49;94575.41;;;13.38;72.97
11099;BME280;12223;42.650;23.364;2023-03-31T07:29:15;94556.50;;;13.51;72.16
11099;BME280;12223;42.650;23.364;2023-03-31T07:31:42;94551.06;;;13.96;68.95
11099;BME280;12223;42.650;23.364;2023-03-31T07:34:13;94557.63;;;14.54;67.80
11099;BME280;12223;42.650;23.364;2023-03-31T07:36:40;94572.91;;;14.41;69.23
11099;BME280;12223;42.650;23.364;2023-03-31T07:39:06;94567.22;;;14.81;67.80
11099;BME280;12223;42.650;23.364;2023-03-31T07:41:32;94570.53;;;14.94;64.14
11099;BME280;12223;42.650;23.364;2023-03-31T07:43:59;94560.66;;;15.48;58.68
11099;BME280;12223;42.650;23.364;2023-03-31T07:46:26;94560.16;;;15.88;57.22
11099;BME280;12223;42.650;23.364;2023-03-31T07:48:53;94543.66;;;14.63;60.33
11099;BME280;12223;42.650;23.364;2023-03-31T07:51:23;94545.69;;;14.13;64.58
11099;BME280;12223;42.650;23.364;2023-03-31T07:53:51;94537.66;;;14.07;60.71
11099;BME280;12223;42.650;23.364;2023-03-31T07:56:17;94544.13;;;14.17;59.95
11099;BME280;12223;42.650;23.364;2023-03-31T07:58:45;94543.69;;;14.25;58.92
11099;BME280;12223;42.650;23.364;2023-03-31T08:01:12;94544.16;;;14.87;57.72
11099;BME280;12223;42.650;23.364;2023-03-31T08:03:41;94541.44;;;14.82;53.80
11099;BME280;12223;42.650;23.364;2023-03-31T08:06:07;94547.22;;;14.30;54.03
11099;BME280;12223;42.650;23.364;2023-03-31T08:08:35;94521.91;;;14.66;53.80
11099;BME280;12223;42.650;23.364;2023-03-31T08:11:07;94525.25;;;14.57;52.72
11099;BME280;12223;42.650;23.364;2023-03-31T08:13:33;94514.81;;;14.50;52.97
11099;BME280;12223;42.650;23.364;2023-03-31T08:16:00;94523.50;;;15.58;50.53
11099;BME280;12223;42.650;23.364;2023-03-31T08:18:27;94525.59;;;14.65;50.99
11099;BME280;12223;42.650;23.364;2023-03-31T08:20:53;94522.50;;;14.30;50.88
11099;BME280;12223;42.650;23.364;2023-03-31T08:23:20;94524.53;;;14.23;51.61
11099;BME280;12223;42.650;23.364;2023-03-31T08:25:47;94523.44;;;14.62;51.78
11099;BME280;12223;42.650;23.364;2023-03-31T08:28:14;94519.06;;;14.51;51.06
11099;BME280;12223;42.650;23.364;2023-03-31T08:30:41;94518.13;;;15.21;49.82
11099;BME280;12223;42.650;23.364;2023-03-31T08:33:08;94511.38;;;15.08;48.80
11099;BME280;12223;42.650;23.364;2023-03-31T08:35:36;94523.78;;;14.44;50.08
11099;BME280;12223;42.650;23.364;2023-03-31T08:38:03;94511.25;;;14.23;50.65
11099;BME280;12223;42.650;23.364;2023-03-31T08:40:29;94508.19;;;14.31;50.56
11099;BME280;12223;42.650;23.364;2023-03-31T08:42:59;94515.66;;;14.34;50.09
11099;BME280;12223;42.650;23.364;2023-03-31T08:45:28;94519.31;;;14.06;50.55
11099;BME280;12223;42.650;23.364;2023-03-31T08:47:58;94528.84;;;14.45;50.41
11099;BME280;12223;42.650;23.364;2023-03-31T08:50:26;94521.00;;;14.82;48.92
11099;BME280;12223;42.650;23.364;2023-03-31T08:52:57;94511.41;;;15.87;46.97
11099;BME280;12223;42.650;23.364;2023-03-31T08:55:26;94520.97;;;16.30;44.71
11099;BME280;12223;42.650;23.364;2023-03-31T08:57:57;94510.78;;;16.17;44.19
11099;BME280;12223;42.650;23.364;2023-03-31T09:00:26;94506.09;;;15.87;44.40
11099;BME280;12223;42.650;23.364;2023-03-31T09:02:57;94492.63;;;15.57;44.93
11099;BME280;12223;42.650;23.364;2023-03-31T09:05:32;94487.75;;;15.49;44.58
11099;BME280;12223;42.650;23.364;2023-03-31T09:08:02;94500.22;;;15.80;44.75
11099;BME280;12223;42.650;23.364;2023-03-31T09:10:34;94498.44;;;15.96;44.72
11099;BME280;12223;42.650;23.364;2023-03-31T09:13:04;94492.50;;;15.79;44.91
11099;BME280;12223;42.650;23.364;2023-03-31T09:15:36;94491.53;;;14.89;46.79
11099;BME280;12223;42.650;23.364;2023-03-31T09:18:06;94497.34;;;15.18;46.49
11099;BME280;12223;42.650;23.364;2023-03-31T09:20:38;94489.06;;;15.46;44.70
11099;BME280;12223;42.650;23.364;2023-03-31T09:23:07;94489.47;;;15.28;45.21
11099;BME280;12223;42.650;23.364;2023-03-31T09:25:38;94488.88;;;15.21;46.08
11099;BME280;12223;42.650;23.364;2023-03-31T09:28:08;94494.25;;;15.31;44.88
11099;BME280;12223;42.650;23.364;2023-03-31T09:30:40;94490.78;;;15.62;45.01
11099;BME280;12223;42.650;23.364;2023-03-31T09:33:09;94474.09;;;16.39;43.23
11099;BME280;12223;42.650;23.364;2023-03-31T09:35:37;94470.59;;;16.29;43.12
11099;BME280;12223;42.650;23.364;2023-03-31T09:38:03;94490.47;;;16.83;42.27
11099;BME280;12223;42.650;23.364;2023-03-31T09:40:30;94485.38;;;16.62;42.58
11099;BME280;12223;42.650;23.364;2023-03-31T09:42:57;94478.50;;;17.21;41.47
11099;BME280;12223;42.650;23.364;2023-03-31T09:45:24;94478.22;;;17.68;40.11
11099;BME280;12223;42.650;23.364;2023-03-31T09:47:53;94478.47;;;17.67;39.78
11099;BME280;12223;42.650;23.364;2023-03-31T09:50:20;94482.75;;;17.53;40.23
11099;BME280;12223;42.650;23.364;2023-03-31T09:52:48;94464.31;;;17.66;39.96
11099;BME280;12223;42.650;23.364;2023-03-31T09:55:17;94460.81;;;17.86;39.47
11099;BME280;12223;42.650;23.364;2023-03-31T09:57:45;94462.41;;;17.87;39.46
11099;BME280;12223;42.650;23.364;2023-03-31T10:00:15;94456.25;;;17.92;39.33
11099;BME280;12223;42.650;23.364;2023-03-31T10:02:43;94450.31;;;18.05;38.96
11099;BME280;12223;42.650;23.364;2023-03-31T10:05:27;94446.81;;;18.15;38.94
11099;BME280;12223;42.650;23.364;2023-03-31T10:08:11;94453.59;;;17.87;39.16
11099;BME280;12223;42.650;23.364;2023-03-31T10:10:42;94454.88;;;18.04;39.12
11099;BME280;12223;42.650;23.364;2023-03-31T10:13:13;94441.56;;;17.94;39.04
11099;BME280;12223;42.650;23.364;2023-03-31T10:15:41;94445.59;;;18.46;38.35
11099;BME280;12223;42.650;23.364;2023-03-31T10:18:11;94442.84;;;18.61;37.56
11099;BME280;12223;42.650;23.364;2023-03-31T10:20:42;94443.00;;;18.80;37.22
11099;BME280;12223;42.650;23.364;2023-03-31T10:23:14;94437.72;;;19.04;36.95
11099;BME280;12223;42.650;23.364;2023-03-31T10:25:41;94437.09;;;19.17;37.06
11099;BME280;12223;42.650;23.364;2023-03-31T10:28:09;94425.41;;;19.08;36.64
11099;BME280;12223;42.650;23.364;2023-03-31T10:30:37;94433.28;;;19.23;36.56
11099;BME280;12223;42.650;23.364;2023-03-31T10:33:06;94421.97;;;19.31;36.31
11099;BME280;12223;42.650;23.364;2023-03-31T10:35:36;94422.38;;;19.48;36.00
11099;BME280;12223;42.650;23.364;2023-03-31T10:38:04;94422.91;;;19.50;35.77
11099;BME280;12223;42.650;23.364;2023-03-31T10:40:32;94413.47;;;19.58;35.52
11099;BME280;12223;42.650;23.364;2023-03-31T10:43:01;94406.91;;;19.40;35.63
11099;BME280;12223;42.650;23.364;2023-03-31T10:45:29;94410.41;;;19.36;35.97
11099;BME280;12223;42.650;23.364;2023-03-31T10:47:56;94406.03;;;19.50;35.64
11099;BME280;12223;42.650;23.364;2023-03-31T10:50:25;94399.69;;;19.41;35.32
11099;BME280;12223;42.650;23.364;2023-03-31T10:52:52;94409.16;;;19.28;35.89
11099;BME280;12223;42.650;23.364;2023-03-31T10:55:28;94406.03;;;18.87;36.72
11099;BME280;12223;42.650;23.364;2023-03-31T10:57:58;94399.66;;;18.83;36.52
11099;BME280;12223;42.650;23.364;2023-03-31T11:00:28;94398.16;;;18.67;36.46
11099;BME280;12223;42.650;23.364;2023-03-31T11:03:02;94403.31;;;18.48;36.80
11099;BME280;12223;42.650;23.364;2023-03-31T11:05:34;94399.59;;;18.88;36.43
11099;BME280;12223;42.650;23.364;2023-03-31T11:08:11;94389.13;;;18.58;36.54
11099;BME280;12223;42.650;23.364;2023-03-31T11:10:50;94388.59;;;18.56;36.86
11099;BME280;12223;42.650;23.364;2023-03-31T11:13:20;94385.63;;;18.13;37.43
11099;BME280;12223;42.650;23.364;2023-03-31T11:15:50;94389.88;;;17.35;39.16
11099;BME280;12223;42.650;23.364;2023-03-31T11:18:26;94381.59;;;18.16;37.93
11099;BME280;12223;42.650;23.364;2023-03-31T11:20:56;94376.75;;;18.23;37.65
11099;BME280;12223;42.650;23.364;2023-03-31T11:23:30;94384.25;;;18.21;37.63
11099;BME280;12223;42.650;23.364;2023-03-31T11:26:04;94367.13;;;18.22;37.67
11099;BME280;12223;42.650;23.364;2023-03-31T11:28:35;94371.59;;;18.36;37.44
11099;BME280;12223;42.650;23.364;2023-03-31T11:31:11;94360.41;;;18.29;37.88
11099;BME280;12223;42.650;23.364;2023-03-31T11:36:29;94350.00;;;18.67;36.88
11099;BME280;12223;42.650;23.364;2023-03-31T11:41:43;94344.84;;;17.92;38.32
11099;BME280;12223;42.650;23.364;2023-03-31T11:44:14;94342.56;;;17.65;38.71
11099;BME280;12223;42.650;23.364;2023-03-31T11:46:42;94354.28;;;15.72;43.02
11099;BME280;12223;42.650;23.364;2023-03-31T11:49:14;94345.63;;;16.37;42.50
11099;BME280;12223;42.650;23.364;2023-03-31T11:51:46;94355.75;;;16.50;41.97
11099;BME280;12223;42.650;23.364;2023-03-31T11:54:22;94343.50;;;16.34;42.82
11099;BME280;12223;42.650;23.364;2023-03-31T11:56:51;94338.16;;;16.95;41.58
11099;BME280;12223;42.650;23.364;2023-03-31T11:59:18;94326.72;;;16.79;41.67
11099;BME280;12223;42.650;23.364;2023-03-31T12:01:48;94326.69;;;16.34;42.81
11099;BME280;12223;42.650;23.364;2023-03-31T12:04:22;94324.84;;;16.55;42.57
11099;BME280;12223;42.650;23.364;2023-03-31T12:06:53;94325.63;;;16.35;43.11
11099;BME280;12223;42.650;23.364;2023-03-31T12:09:24;94327.88;;;15.60;44.30
11099;BME280;12223;42.650;23.364;2023-03-31T12:11:54;94309.28;;;15.71;44.70
11099;BME280;12223;42.650;23.364;2023-03-31T12:14:25;94305.31;;;15.78;44.70
11099;BME280;12223;42.650;23.364;2023-03-31T12:16:53;94307.78;;;16.30;43.78
11099;BME280;12223;42.650;23.364;2023-03-31T12:19:22;94301.38;;;16.26;43.61
11099;BME280;12223;42.650;23.364;2023-03-31T12:21:54;94299.00;;;16.25;43.49
11099;BME280;12223;42.650;23.364;2023-03-31T12:24:21;94300.47;;;15.60;44.15
11099;BME280;12223;42.650;23.364;2023-03-31T12:26:50;94295.25;;;16.26;43.49
11099;BME280;12223;42.650;23.364;2023-03-31T12:29:24;94293.94;;;16.48;43.05
11099;BME280;12223;42.650;23.364;2023-03-31T12:31:53;94286.72;;;16.44;42.97
11099;BME280;12223;42.650;23.364;2023-03-31T12:34:21;94286.72;;;16.54;43.24
11099;BME280;12223;42.650;23.364;2023-03-31T12:36:57;94291.53;;;16.27;43.51
11099;BME280;12223;42.650;23.364;2023-03-31T12:39:30;94289.69;;;16.37;43.51
11099;BME280;12223;42.650;23.364;2023-03-31T12:42:03;94283.00;;;16.65;42.81
11099;BME280;12223;42.650;23.364;2023-03-31T12:44:39;94278.94;;;17.13;42.12
11099;BME280;12223;42.650;23.364;2023-03-31T12:47:17;94277.59;;;17.80;40.99
11099;BME280;12223;42.650;23.364;2023-03-31T12:49:50;94263.25;;;18.44;39.42
11099;BME280;12223;42.650;23.364;2023-03-31T12:52:19;94257.88;;;17.07;41.30
11099;BME280;12223;42.650;23.364;2023-03-31T12:57:29;94247.00;;;16.73;42.33
11099;BME280;12223;42.650;23.364;2023-03-31T13:02:46;94235.53;;;16.52;42.79
11099;BME280;12223;42.650;23.364;2023-03-31T13:07:58;94221.94;;;16.59;42.87
11099;BME280;12223;42.650;23.364;2023-03-31T13:10:25;94215.75;;;16.94;43.05
11099;BME280;12223;42.650;23.364;2023-03-31T13:12:55;94218.41;;;17.63;41.15
11099;BME280;12223;42.650;23.364;2023-03-31T13:15:23;94213.72;;;17.35;42.10
11099;BME280;12223;42.650;23.364;2023-03-31T13:17:55;94198.66;;;17.98;40.74
11099;BME280;12223;42.650;23.364;2023-03-31T13:20:29;94204.16;;;17.23;41.69
11099;BME280;12223;42.650;23.364;2023-03-31T13:23:01;94186.50;;;17.33;41.73